Time;durP1;ratioP1;P1;durP2;ratioP2;P2;SDS_P1;SDS_P2;PMS_P1;PMS_P2;Temp;Humidity;BMP_temperature;BMP_pressure;BME280_temperature;BME280_humidity;BME280_pressure;Samples;Min_cycle;Max_cycle;Signal;HPM_P1;HPM_P2
2022/05/20 00:00:13;;;;;;;13.30;6.95;;;13.80;99.90;;;;;;5052148;28;20044;-68
2022/05/20 00:02:38;;;;;;;11.98;7.85;;;13.60;99.90;;;;;;5052829;28;20047;-68
2022/05/20 00:05:04;;;;;;;11.65;7.88;;;13.80;99.90;;;;;;5054156;28;20044;-67
2022/05/20 00:07:30;;;;;;;11.07;8.00;;;13.80;99.90;;;;;;5054730;28;20040;-67
2022/05/20 00:09:56;;;;;;;9.52;7.43;;;13.80;99.90;;;;;;5055626;28;20139;-67
2022/05/20 00:12:22;;;;;;;11.50;7.70;;;13.90;99.90;;;;;;5074478;28;20474;-67
2022/05/20 00:14:47;;;;;;;12.63;8.93;;;13.80;99.90;;;;;;5074313;28;20490;-68
2022/05/20 00:17:13;;;;;;;11.73;8.02;;;13.80;99.90;;;;;;5056379;28;20336;-68
2022/05/20 00:19:38;;;;;;;16.63;8.48;;;13.60;99.90;;;;;;5055405;28;20037;-68
2022/05/20 00:22:07;;;;;;;11.20;7.82;;;13.80;99.90;;;;;;5074521;28;20111;-68
2022/05/20 00:24:33;;;;;;;13.93;8.82;;;13.70;99.90;;;;;;5056057;28;20123;-67
2022/05/20 00:26:59;;;;;;;12.13;8.82;;;13.60;99.90;;;;;;5074355;28;20036;-68
2022/05/20 00:29:25;;;;;;;13.80;8.65;;;13.50;99.90;;;;;;5055755;28;20036;-68
2022/05/20 00:31:51;;;;;;;13.13;8.98;;;13.50;99.90;;;;;;5055974;28;20414;-67
2022/05/20 00:34:16;;;;;;;16.63;9.63;;;13.40;99.90;;;;;;5073741;28;20051;-67
2022/05/20 00:36:42;;;;;;;14.68;10.00;;;13.50;99.90;;;;;;5056242;28;20514;-67
2022/05/20 00:39:07;;;;;;;14.43;9.77;;;13.40;99.90;;;;;;5072987;28;20166;-66
2022/05/20 00:41:33;;;;;;;17.30;10.60;;;13.30;99.90;;;;;;5056132;28;20050;-67
2022/05/20 00:43:59;;;;;;;13.82;10.52;;;13.40;99.90;;;;;;5073568;28;20062;-67
2022/05/20 00:46:27;;;;;;;18.80;10.75;;;13.60;99.90;;;;;;5056135;28;20062;-67
2022/05/20 00:48:58;;;;;;;15.38;10.80;;;13.50;99.90;;;;;;5038872;28;20116;-66
2022/05/20 00:51:30;;;;;;;13.93;10.70;;;13.70;99.90;;;;;;5073643;28;20462;-67
2022/05/20 00:54:01;;;;;;;17.88;10.05;;;13.70;99.90;;;;;;5038973;28;20074;-67
2022/05/20 00:56:35;;;;;;;19.00;10.65;;;13.30;99.90;;;;;;5073715;28;20040;-67
2022/05/20 00:59:03;;;;;;;18.20;10.98;;;13.40;99.90;;;;;;5054935;28;20040;-67
2022/05/20 01:01:29;;;;;;;19.30;10.75;;;13.40;99.90;;;;;;5073483;28;20071;-67
2022/05/20 01:03:56;;;;;;;18.70;11.23;;;13.50;99.90;;;;;;5055294;28;20068;-67
2022/05/20 01:06:21;;;;;;;16.08;11.15;;;13.40;99.90;;;;;;5039073;28;20101;-67
2022/05/20 01:08:47;;;;;;;16.70;10.60;;;13.70;99.90;;;;;;5053544;28;20493;-67
2022/05/20 01:11:13;;;;;;;18.65;10.75;;;13.50;99.90;;;;;;5054792;28;20512;-68
2022/05/20 01:13:39;;;;;;;18.02;10.18;;;13.60;99.90;;;;;;5073491;28;20041;-68
2022/05/20 01:16:08;;;;;;;16.73;10.23;;;13.50;99.90;;;;;;5054882;28;20040;-67
2022/05/20 01:18:36;;;;;;;14.77;10.50;;;13.70;99.90;;;;;;5055663;28;20040;-67
2022/05/20 01:21:02;;;;;;;12.93;10.27;;;13.50;99.90;;;;;;5055080;28;20048;-67
2022/05/20 01:23:31;;;;;;;11.50;9.80;;;13.60;99.90;;;;;;5073100;28;20049;-67
2022/05/20 01:25:58;;;;;;;16.00;10.23;;;13.60;99.90;;;;;;5054932;28;20157;-67
2022/05/20 01:28:27;;;;;;;17.92;9.90;;;13.60;99.90;;;;;;5055046;28;20078;-67
2022/05/20 01:30:56;;;;;;;19.23;10.50;;;13.60;99.90;;;;;;5072263;28;20032;-67
2022/05/20 01:33:30;;;;;;;12.93;9.98;;;13.50;99.90;;;;;;5055193;28;20376;-68
2022/05/20 01:35:55;;;;;;;15.20;10.27;;;13.60;99.90;;;;;;5055120;28;20604;-67
2022/05/20 01:38:21;;;;;;;16.35;9.95;;;13.50;99.90;;;;;;5072668;28;20119;-67
2022/05/20 01:40:56;;;;;;;15.52;10.13;;;13.40;99.90;;;;;;5054098;28;20042;-67
2022/05/20 01:43:33;;;;;;;14.02;10.05;;;13.60;99.90;;;;;;5054646;28;20068;-67
2022/05/20 01:46:20;;;;;;;15.90;10.07;;;13.50;99.90;;;;;;5054583;28;20061;-67
2022/05/20 01:48:58;;;;;;;15.50;11.48;;;13.60;99.90;;;;;;5072497;28;20185;-67
2022/05/20 01:51:29;;;;;;;11.98;9.93;;;13.50;99.90;;;;;;5054550;28;20036;-67
2022/05/20 01:54:03;;;;;;;14.27;10.70;;;13.60;99.90;;;;;;5054509;28;20570;-67
2022/05/20 01:56:41;;;;;;;13.88;9.98;;;13.50;99.90;;;;;;5072416;28;20044;-67
2022/05/20 01:59:17;;;;;;;14.43;9.95;;;13.50;99.90;;;;;;5037582;28;20156;-66
2022/05/20 02:01:52;;;;;;;15.23;10.43;;;13.40;99.90;;;;;;5038130;28;20439;-67
2022/05/20 02:04:43;;;;;;;16.02;10.05;;;13.60;99.90;;;;;;5054454;28;20125;-67
2022/05/20 02:07:16;;;;;;;13.50;10.65;;;13.50;99.90;;;;;;5052684;28;20398;-67
2022/05/20 02:10:01;;;;;;;14.40;10.73;;;13.40;99.90;;;;;;5053491;28;20036;-67
2022/05/20 02:12:29;;;;;;;13.38;11.05;;;13.40;99.90;;;;;;5054237;28;20040;-67
2022/05/20 02:15:09;;;;;;;14.93;10.50;;;13.20;99.90;;;;;;5071978;28;20727;-67
2022/05/20 02:17:38;;;;;;;13.07;11.15;;;13.20;99.90;;;;;;5054048;28;20032;-68
2022/05/20 02:20:12;;;;;;;11.02;9.57;;;13.30;99.90;;;;;;5053243;28;20128;-67
2022/05/20 02:22:44;;;;;;;14.13;10.55;;;13.30;99.90;;;;;;5072024;28;20095;-67
2022/05/20 02:25:15;;;;;;;18.05;10.85;;;13.20;99.90;;;;;;5054161;28;20072;-68
2022/05/20 02:27:44;;;;;;;17.42;12.50;;;13.20;99.90;;;;;;5053375;28;20174;-67
2022/05/20 02:30:16;;;;;;;15.40;12.25;;;13.20;99.90;;;;;;5053421;28;20446;-67
2022/05/20 02:32:59;;;;;;;18.20;11.90;;;13.30;99.90;;;;;;5053837;28;20457;-68
2022/05/20 02:35:25;;;;;;;18.48;11.32;;;13.20;99.90;;;;;;5053908;28;20498;-67
2022/05/20 02:37:51;;;;;;;18.85;11.93;;;13.30;99.90;;;;;;5053748;28;20055;-67
2022/05/20 02:40:19;;;;;;;16.10;12.43;;;13.30;99.90;;;;;;5053017;28;20414;-68
2022/05/20 02:42:44;;;;;;;16.63;11.95;;;13.20;99.90;;;;;;5053552;28;20650;-67
2022/05/20 02:45:11;;;;;;;14.95;12.02;;;13.20;99.90;;;;;;5053441;28;20119;-67
2022/05/20 02:47:37;;;;;;;16.85;11.35;;;12.90;99.90;;;;;;5053848;28;20155;-67
2022/05/20 02:50:09;;;;;;;16.33;13.05;;;13.10;99.90;;;;;;5070801;28;20134;-67
2022/05/20 02:52:35;;;;;;;17.48;11.95;;;13.00;99.90;;;;;;5053284;28;20033;-67
2022/05/20 02:55:02;;;;;;;16.38;12.20;;;13.10;99.90;;;;;;5071300;28;20044;-67
2022/05/20 02:57:28;;;;;;;18.20;12.70;;;13.00;99.90;;;;;;5053461;28;20059;-68
2022/05/20 03:05:21;;;;;;;15.32;12.35;;;12.80;99.90;;;;;;5053243;28;20049;-67
2022/05/20 03:07:47;;;;;;;18.23;11.82;;;12.60;99.90;;;;;;5051975;28;20119;-68
2022/05/20 03:10:13;;;;;;;14.85;11.18;;;12.80;99.90;;;;;;5070681;28;20028;-67
2022/05/20 03:12:39;;;;;;;16.65;11.50;;;12.70;99.90;;;;;;5053540;28;20078;-68
2022/05/20 03:15:08;;;;;;;15.85;12.15;;;12.70;99.90;;;;;;5071295;28;20036;-68
2022/05/20 03:17:34;;;;;;;18.02;12.80;;;12.70;99.90;;;;;;5053203;28;20052;-67
2022/05/20 03:20:00;;;;;;;20.95;12.70;;;12.60;99.90;;;;;;5052844;28;20382;-68
2022/05/20 03:22:27;;;;;;;20.75;13.00;;;;;;;;;;5071262;28;20033;-68
2022/05/20 03:24:52;;;;;;;15.38;12.75;;;12.60;99.90;;;;;;5053336;28;20037;-68
2022/05/20 03:27:18;;;;;;;18.85;12.65;;;12.70;99.90;;;;;;5053470;28;20043;-68
2022/05/20 03:29:45;;;;;;;15.77;13.48;;;12.50;99.90;;;;;;5070523;28;20036;-68
2022/05/20 03:32:11;;;;;;;19.30;12.88;;;12.60;99.90;;;;;;5071260;28;20043;-67
2022/05/20 03:34:38;;;;;;;17.23;12.98;;;12.50;99.90;;;;;;5071401;28;20032;-68
2022/05/20 03:37:04;;;;;;;17.38;12.50;;;12.30;99.90;;;;;;5071307;28;20044;-68
2022/05/20 03:39:30;;;;;;;18.67;13.35;;;;;;;;;;5054595;28;20113;-68
2022/05/20 03:41:56;;;;;;;16.83;13.35;;;12.40;99.90;;;;;;5057056;28;20043;-67
2022/05/20 03:44:22;;;;;;;16.38;13.20;;;12.40;99.90;;;;;;5056795;28;20048;-67
2022/05/20 03:46:52;;;;;;;24.33;15.23;;;12.40;99.90;;;;;;5074886;28;20101;-67
2022/05/20 03:49:19;;;;;;;21.77;14.65;;;12.40;99.90;;;;;;5039468;28;20040;-67
2022/05/20 03:51:47;;;;;;;21.30;13.75;;;12.50;99.90;;;;;;5040138;28;20044;-67
2022/05/20 03:54:15;;;;;;;16.23;13.93;;;12.40;99.90;;;;;;5056906;28;20079;-67
2022/05/20 03:56:41;;;;;;;22.42;15.77;;;;;;;;;;5056860;28;20041;-67
2022/05/20 03:59:11;;;;;;;21.02;14.75;;;12.60;99.90;;;;;;5073827;28;20080;-65
2022/05/20 04:01:59;;;;;;;24.45;16.50;;;12.60;99.90;;;;;;5074694;28;20079;-67
2022/05/20 04:04:37;;;;;;;18.60;14.95;;;12.60;99.90;;;;;;5056399;28;20040;-67
2022/05/20 04:07:06;;;;;;;18.95;15.55;;;12.50;99.90;;;;;;5055189;28;20045;-66
2022/05/20 04:09:32;;;;;;;23.20;15.30;;;12.50;99.90;;;;;;5073626;28;20044;-67
2022/05/20 04:11:59;;;;;;;21.05;14.23;;;12.50;99.90;;;;;;5056858;28;20094;-67
2022/05/20 04:14:28;;;;;;;19.30;14.60;;;12.60;99.90;;;;;;5074424;28;20401;-68
2022/05/20 04:16:57;;;;;;;22.95;15.55;;;12.60;99.90;;;;;;5074542;28;20412;-68
2022/05/20 04:19:28;;;;;;;16.30;14.48;;;12.40;99.90;;;;;;5055488;28;20040;-67
2022/05/20 04:21:57;;;;;;;20.17;14.45;;;12.30;99.90;;;;;;5056627;28;20547;-68
2022/05/20 04:24:23;;;;;;;18.90;13.65;;;12.50;99.90;;;;;;5056075;28;20044;-68
2022/05/20 04:26:48;;;;;;;20.98;15.43;;;;;;;;;;5039586;28;20154;-67
2022/05/20 04:29:14;;;;;;;22.77;14.70;;;12.60;99.90;;;;;;5073375;28;20113;-67
2022/05/20 04:31:43;;;;;;;19.02;13.65;;;12.40;99.90;;;;;;5074047;28;20071;-68
2022/05/20 04:34:09;;;;;;;18.80;14.88;;;12.50;99.90;;;;;;5073855;28;20452;-68
2022/05/20 04:36:34;;;;;;;21.00;15.80;;;12.40;99.90;;;;;;5056063;28;20127;-68
2022/05/20 04:39:00;;;;;;;19.63;15.95;;;;;;;;;;5073506;28;20052;-67
2022/05/20 04:46:58;;;;;;;19.60;15.45;;;12.50;99.90;;;;;;5073670;28;20048;-68
2022/05/20 04:49:31;;;;;;;20.15;15.65;;;12.30;99.90;;;;;;5055311;28;20037;-67
2022/05/20 04:52:00;;;;;;;22.02;15.30;;;12.40;99.90;;;;;;5055241;28;20060;-68
2022/05/20 04:57:26;;;;;;;19.33;14.82;;;12.60;99.90;;;;;;5073993;28;20402;-68
2022/05/20 04:59:53;;;;;;;17.48;14.73;;;12.70;99.90;;;;;;5055276;28;20037;-67
2022/05/20 05:02:20;;;;;;;23.23;16.50;;;12.80;99.90;;;;;;5055825;28;20051;-67
2022/05/20 05:04:47;;;;;;;18.55;13.85;;;;;;;;;;5073657;28;20406;-67
2022/05/20 05:07:13;;;;;;;18.58;14.52;;;12.90;99.90;;;;;;5054038;28;20032;-66
2022/05/20 05:09:40;;;;;;;22.02;15.23;;;13.00;99.90;;;;;;5054585;28;20066;-67
2022/05/20 05:12:07;;;;;;;21.60;16.30;;;13.00;99.90;;;;;;5073491;28;20402;-67
2022/05/20 05:14:52;;;;;;;22.33;17.08;;;13.00;99.90;;;;;;5055238;28;20040;-67
2022/05/20 05:18:09;;;;;;;17.88;15.25;;;13.00;99.90;;;;;;5073287;28;20036;-68
2022/05/20 05:20:10;;;;;;;19.63;13.98;;;13.00;99.90;;;;;;5054511;28;20044;-67
2022/05/20 05:22:36;;;;;;;23.60;14.88;;;13.10;99.90;;;;;;5055313;28;20033;-67
2022/05/20 05:25:02;;;;;;;21.25;15.68;;;13.20;99.90;;;;;;5053990;28;20035;-67
2022/05/20 05:27:28;;;;;;;17.83;14.88;;;;;;;;;;5067805;28;20037;-67
2022/05/20 05:29:54;;;;;;;21.15;15.43;;;;;;;;;;5053523;28;20074;-67
2022/05/20 05:32:20;;;;;;;20.85;14.40;;;13.40;99.90;;;;;;5062347;28;20032;-68
2022/05/20 05:34:45;;;;;;;18.67;14.85;;;13.50;99.90;;;;;;5052391;28;20118;-68
2022/05/20 05:37:11;;;;;;;25.50;15.82;;;;;;;;;;5053813;28;20052;-68
2022/05/20 05:39:37;;;;;;;19.58;14.10;;;13.60;99.90;;;;;;5051539;28;20040;-69
2022/05/20 05:42:04;;;;;;;21.20;12.07;;;13.50;99.90;;;;;;5059694;28;20048;-68
2022/05/20 05:46:58;;;;;;;20.92;12.75;;;;;;;;;;5051483;28;20065;-74
2022/05/20 05:49:24;;;;;;;18.88;12.18;;;13.80;99.90;;;;;;5052410;28;20399;-74
2022/05/20 05:51:49;;;;;;;14.48;9.20;;;14.00;99.90;;;;;;5053059;28;20044;-75
2022/05/20 05:54:16;;;;;;;15.35;8.23;;;;;;;;;;5033423;28;20063;-74
2022/05/20 05:56:42;;;;;;;11.93;7.97;;;13.90;99.90;;;;;;5034831;28;20048;-74
2022/05/20 05:59:08;;;;;;;18.13;8.80;;;14.30;99.90;;;;;;5052263;28;20090;-74
2022/05/20 06:01:34;;;;;;;16.15;8.38;;;;;;;;;;5034741;28;20052;-75
2022/05/20 06:04:00;;;;;;;17.15;8.63;;;14.20;99.90;;;;;;5054742;28;20037;-74
2022/05/20 06:06:25;;;;;;;15.30;7.85;;;14.20;99.90;;;;;;5055455;28;20166;-75
2022/05/20 06:08:51;;;;;;;16.83;7.20;;;14.40;99.90;;;;;;5052374;28;20120;-74
2022/05/20 06:11:17;;;;;;;15.52;7.43;;;;;;;;;;5034487;28;20602;-75
2022/05/20 06:13:42;;;;;;;14.60;9.20;;;14.60;99.90;;;;;;5034613;28;20047;-75
2022/05/20 06:16:08;;;;;;;13.32;8.13;;;14.80;99.90;;;;;;5034735;28;20044;-75
2022/05/20 06:18:34;;;;;;;12.40;7.30;;;15.10;99.90;;;;;;5032127;28;20094;-75
2022/05/20 06:21:00;;;;;;;23.58;10.20;;;15.00;99.90;;;;;;5025390;28;20044;-75
2022/05/20 06:23:26;;;;;;;11.50;7.22;;;15.10;99.90;;;;;;5030172;28;20068;-75
2022/05/20 06:25:53;;;;;;;11.35;7.32;;;15.10;99.90;;;;;;5035212;28;20465;-76
2022/05/20 06:28:19;;;;;;;12.95;7.68;;;15.10;99.90;;;;;;5048456;28;20045;-76
2022/05/20 06:30:45;;;;;;;11.57;5.95;;;15.20;99.90;;;;;;5029943;28;20083;-74
2022/05/20 06:33:12;;;;;;;9.90;6.63;;;15.20;99.90;;;;;;5047813;28;20122;-75
2022/05/20 06:41:08;;;;;;;10.35;6.07;;;;;;;;;;5029510;28;20041;-75
2022/05/20 06:43:34;;;;;;;11.13;5.45;;;;;;;;;;5029679;28;20048;-75
2022/05/20 06:46:02;;;;;;;13.93;5.75;;;15.60;99.90;;;;;;5029220;28;20051;-75
2022/05/20 06:48:41;;;;;;;10.95;6.25;;;15.60;99.90;;;;;;5048541;28;20037;-75
2022/05/20 06:51:08;;;;;;;20.92;6.43;;;15.40;99.90;;;;;;5050058;28;20037;-75
2022/05/20 06:53:34;;;;;;;11.73;6.40;;;;;;;;;;5031790;28;20051;-75
2022/05/20 06:55:59;;;;;;;20.15;8.57;;;15.60;99.90;;;;;;5033782;28;20045;-75
2022/05/20 06:58:25;;;;;;;11.90;6.85;;;;;;;;;;5034220;28;20098;-75
2022/05/20 07:00:51;;;;;;;14.32;6.55;;;15.60;99.90;;;;;;5033259;28;20368;-75
2022/05/20 07:03:19;;;;;;;10.25;4.63;;;15.40;99.90;;;;;;5033733;28;20048;-75
2022/05/20 07:05:46;;;;;;;12.65;5.70;;;15.50;99.90;;;;;;5017545;28;20450;-74
2022/05/20 07:08:12;;;;;;;10.82;5.35;;;15.70;99.90;;;;;;5051906;28;20040;-75
2022/05/20 07:10:38;;;;;;;11.10;5.53;;;;;;;;;;5032998;28;20045;-75
2022/05/20 07:13:03;;;;;;;14.30;5.75;;;15.80;99.90;;;;;;5034166;28;20041;-75
2022/05/20 07:15:29;;;;;;;9.10;5.85;;;16.00;99.90;;;;;;5033628;28;20069;-75
2022/05/20 07:17:54;;;;;;;13.90;5.65;;;16.10;99.90;;;;;;5033703;28;20564;-75
2022/05/20 07:20:20;;;;;;;13.20;5.18;;;16.00;99.90;;;;;;5050919;28;20442;-75
2022/05/20 07:22:46;;;;;;;10.30;5.75;;;16.30;99.90;;;;;;5033951;28;20041;-75
2022/05/20 07:25:12;;;;;;;10.50;6.57;;;16.50;99.90;;;;;;5017153;28;20479;-75
2022/05/20 07:27:38;;;;;;;12.45;6.40;;;16.60;99.90;;;;;;5051455;28;20052;-75
2022/05/20 07:30:04;;;;;;;12.02;5.78;;;16.70;99.90;;;;;;5016332;28;20036;-75
2022/05/20 07:32:30;;;;;;;13.07;5.88;;;16.80;99.90;;;;;;5051351;28;20058;-75
2022/05/20 07:34:55;;;;;;;13.60;4.78;;;16.80;99.90;;;;;;5051595;28;20040;-76
2022/05/20 07:37:21;;;;;;;14.75;6.28;;;16.80;99.90;;;;;;5051329;28;20376;-75
2022/05/20 07:39:47;;;;;;;10.95;5.47;;;16.90;99.90;;;;;;5050711;28;20091;-75
2022/05/20 07:42:13;;;;;;;9.73;4.63;;;17.00;99.90;;;;;;5017221;28;20037;-75
2022/05/20 07:44:41;;;;;;;7.50;4.72;;;17.00;99.90;;;;;;5050988;28;20045;-75
2022/05/20 07:47:07;;;;;;;6.25;4.20;;;17.20;99.90;;;;;;5033757;28;20036;-75
2022/05/20 07:49:33;;;;;;;10.65;3.90;;;17.40;99.90;;;;;;5050974;28;20036;-75
2022/05/20 07:52:02;;;;;;;6.53;3.42;;;17.50;99.90;;;;;;5051506;28;20037;-75
2022/05/20 07:54:30;;;;;;;9.52;4.50;;;17.60;99.90;;;;;;5051332;28;20041;-75
2022/05/20 07:57:01;;;;;;;8.95;3.78;;;17.70;99.90;;;;;;5051271;28;20045;-75
2022/05/20 07:59:37;;;;;;;8.40;4.13;;;17.40;99.90;;;;;;5032507;28;20123;-75
2022/05/20 08:02:03;;;;;;;9.27;4.38;;;17.70;99.90;;;;;;5033296;28;20128;-75
2022/05/20 08:07:36;;;;;;;6.78;4.38;;;17.20;99.90;;;;;;5033503;28;20036;-75
2022/05/20 08:10:07;;;;;;;8.70;4.70;;;17.20;99.90;;;;;;5032488;28;20067;-75
2022/05/20 08:12:33;;;;;;;8.00;4.50;;;17.40;99.90;;;;;;5033380;28;20044;-75
2022/05/20 08:14:59;;;;;;;13.00;4.57;;;17.30;99.90;;;;;;5033289;28;20033;-75
2022/05/20 08:17:25;;;;;;;8.93;4.47;;;17.20;99.90;;;;;;5051054;28;20332;-75
2022/05/20 08:19:54;;;;;;;7.60;3.92;;;17.20;99.90;;;;;;5032430;28;20041;-75
2022/05/20 08:22:22;;;;;;;11.43;4.20;;;17.20;99.90;;;;;;5032979;28;20036;-75
2022/05/20 08:24:52;;;;;;;6.93;4.10;;;17.40;99.90;;;;;;5050889;28;20045;-76
2022/05/20 08:27:22;;;;;;;8.50;4.60;;;17.40;99.90;;;;;;5053969;28;20395;-76
2022/05/20 08:29:48;;;;;;;8.40;5.10;;;17.50;99.90;;;;;;5035851;28;20033;-75
2022/05/20 08:32:15;;;;;;;8.55;4.32;;;17.60;99.90;;;;;;5036395;28;20044;-75
2022/05/20 08:34:42;;;;;;;10.45;4.30;;;17.50;99.90;;;;;;5036492;28;20049;-75
2022/05/20 08:37:08;;;;;;;6.47;5.10;;;17.60;99.90;;;;;;5036496;28;20072;-75
2022/05/20 08:39:33;;;;;;;11.20;5.28;;;17.60;99.90;;;;;;5035625;28;20076;-76
2022/05/20 08:41:59;;;;;;;7.47;4.95;;;17.50;99.90;;;;;;5054432;28;20083;-75
2022/05/20 08:44:25;;;;;;;8.73;4.15;;;17.80;99.90;;;;;;5054132;28;20041;-75
2022/05/20 08:47:04;;;;;;;7.72;3.95;;;17.90;99.90;;;;;;5036194;28;20036;-74
2022/05/20 08:49:30;;;;;;;10.85;4.38;;;17.90;99.90;;;;;;5040873;28;20036;-74
2022/05/20 08:51:56;;;;;;;10.77;4.43;;;18.90;99.90;;;;;;5049272;28;20613;-74
2022/05/20 08:54:21;;;;;;;8.60;5.03;;;18.20;99.90;;;;;;5039663;28;20054;-74
2022/05/20 08:56:48;;;;;;;11.02;5.20;;;18.40;99.90;;;;;;5053683;28;20066;-74
2022/05/20 08:59:19;;;;;;;8.15;5.07;;;18.20;99.90;;;;;;5043197;28;20048;-74
2022/05/20 09:01:50;;;;;;;6.22;3.75;;;18.20;99.90;;;;;;5049365;28;20110;-74
2022/05/20 09:04:18;;;;;;;9.57;3.95;;;18.10;99.90;;;;;;5071697;28;20044;-74
2022/05/20 09:07:08;;;;;;;8.70;3.80;;;18.30;99.90;;;;;;5055725;28;20122;-74
2022/05/20 09:09:42;;;;;;;7.55;4.57;;;18.50;99.90;;;;;;5064751;28;20143;-74
2022/05/20 09:12:09;;;;;;;8.02;3.72;;;18.50;99.90;;;;;;5053536;28;20033;-74
2022/05/20 09:17:22;;;;;;;8.60;3.83;;;18.50;99.90;;;;;;5053300;28;20041;-74
2022/05/20 09:20:02;;;;;;;9.05;4.40;;;18.20;99.90;;;;;;5018187;28;20033;-74
2022/05/20 09:22:36;;;;;;;8.10;4.05;;;18.80;99.90;;;;;;5035747;28;20059;-74
2022/05/20 09:25:18;;;;;;;5.78;3.60;;;18.70;99.90;;;;;;5035423;28;20087;-74
2022/05/20 09:27:43;;;;;;;7.47;4.32;;;18.90;99.90;;;;;;5023285;28;20114;-74
2022/05/20 09:30:15;;;;;;;11.85;4.30;;;18.70;99.90;;;;;;5033840;28;20088;-74
2022/05/20 09:32:43;;;;;;;6.85;4.78;;;18.80;99.90;;;;;;5035069;28;20115;-74
2022/05/20 09:35:18;;;;;;;5.90;3.92;;;19.00;99.90;;;;;;5035162;28;20044;-74
2022/05/20 09:37:46;;;;;;;7.20;4.05;;;18.70;99.90;;;;;;5034741;28;20044;-74
2022/05/20 09:40:33;;;;;;;7.30;3.72;;;18.80;99.90;;;;;;5034515;28;20463;-74
2022/05/20 09:43:07;;;;;;;5.75;3.55;;;18.80;99.90;;;;;;5035169;28;20437;-74
2022/05/20 09:45:46;;;;;;;8.88;4.13;;;18.90;99.90;;;;;;5034871;28;20045;-74
2022/05/20 09:48:20;;;;;;;6.22;3.88;;;18.80;99.90;;;;;;5043980;28;20445;-74
2022/05/20 09:51:05;;;;;;;6.25;3.55;;;18.60;99.90;;;;;;5059567;28;20037;-74
2022/05/20 09:53:40;;;;;;;7.60;3.90;;;18.40;99.90;;;;;;5045424;28;20040;-74
2022/05/20 09:56:24;;;;;;;5.95;3.80;;;18.50;99.90;;;;;;5054692;28;20127;-74
2022/05/20 09:59:14;;;;;;;6.93;3.78;;;18.50;99.90;;;;;;5054350;28;20036;-74
2022/05/20 10:01:45;;;;;;;7.88;3.60;;;18.30;99.90;;;;;;5054472;28;20127;-74
2022/05/20 10:04:17;;;;;;;5.50;3.53;;;18.50;99.90;;;;;;5054386;28;20262;-74
2022/05/20 10:06:56;;;;;;;6.38;3.33;;;18.30;99.90;;;;;;5054343;28;20040;-74
2022/05/20 10:09:37;;;;;;;6.28;4.13;;;18.30;99.90;;;;;;5037156;28;20258;-74
2022/05/20 10:12:25;;;;;;;5.53;3.25;;;18.40;99.90;;;;;;5054360;28;20094;-74
2022/05/20 10:15:14;;;;;;;6.20;3.30;;;19.90;99.90;;;;;;5072153;28;20120;-74
2022/05/20 10:18:03;;;;;;;4.30;3.17;;;18.50;99.90;;;;;;5040023;28;20616;-74
2022/05/20 10:20:35;;;;;;;6.03;3.90;;;18.70;99.90;;;;;;5071508;28;20047;-74
2022/05/20 10:23:25;;;;;;;5.60;3.55;;;18.80;99.90;;;;;;5051125;28;20531;-74
2022/05/20 10:26:00;;;;;;;5.63;3.88;;;18.90;99.90;;;;;;5046926;28;20029;-74
2022/05/20 10:34:27;;;;;;;5.30;3.10;;;19.30;99.90;;;;;;5071988;28;20044;-74
2022/05/20 10:37:35;;;;;;;7.35;3.75;;;19.00;99.90;;;;;;5070061;28;20040;-74
2022/05/20 10:40:09;;;;;;;4.53;2.88;;;19.10;99.90;;;;;;5042659;28;20057;-74
2022/05/20 10:43:19;;;;;;;6.00;2.88;;;19.10;99.90;;;;;;5053711;28;20045;-74
2022/05/20 10:49:02;;;;;;;4.65;3.65;;;19.30;99.90;;;;;;5047649;28;20098;-74
2022/05/20 10:51:41;;;;;;;7.15;4.00;;;18.90;99.90;;;;;;5051576;28;20042;-74
2022/05/20 10:54:25;;;;;;;5.00;3.20;;;19.30;99.90;;;;;;5034202;28;20032;-74
2022/05/20 10:57:22;;;;;;;5.85;3.20;;;19.00;99.90;;;;;;5020120;28;20518;-74
2022/05/20 11:00:05;;;;;;;12.63;4.70;;;19.10;99.90;;;;;;5050666;28;20556;-74
2022/05/20 11:03:09;;;;;;;8.30;5.13;;;19.20;99.90;;;;;;5049575;28;20048;-74
2022/05/20 11:06:07;;;;;;;8.48;5.28;;;19.20;99.90;;;;;;5022853;28;20037;-74
2022/05/20 11:09:07;;;;;;;7.63;4.65;;;19.20;99.90;;;;;;5029544;28;20052;-75
2022/05/20 11:11:48;;;;;;;10.32;4.53;;;19.40;99.90;;;;;;5016784;28;20052;-74
2022/05/20 11:14:40;;;;;;;6.18;3.83;;;19.50;99.90;;;;;;5027448;28;20072;-74
2022/05/20 11:17:29;;;;;;;7.88;5.35;;;19.60;99.90;;;;;;5025258;28;20041;-74
2022/05/20 11:20:05;;;;;;;7.55;5.32;;;19.40;99.90;;;;;;5028896;28;20036;-74
2022/05/20 11:22:50;;;;;;;8.88;4.95;;;19.40;99.90;;;;;;5042393;28;20041;-74
2022/05/20 11:25:43;;;;;;;9.73;5.03;;;19.40;99.90;;;;;;5046547;28;20498;-74
2022/05/20 11:28:37;;;;;;;7.22;4.60;;;19.40;99.90;;;;;;5037154;28;20041;-74
2022/05/20 11:31:48;;;;;;;9.77;5.65;;;19.50;99.90;;;;;;5029078;28;20605;-74
2022/05/20 11:34:20;;;;;;;7.25;4.43;;;19.70;99.90;;;;;;4990923;28;20128;-74
2022/05/20 11:37:17;;;;;;;7.45;5.00;;;19.60;99.90;;;;;;5039864;28;20041;-73
2022/05/20 11:40:19;;;;;;;7.53;4.78;;;19.90;99.90;;;;;;5052630;28;20374;-74
2022/05/20 11:43:21;;;;;;;10.77;5.13;;;19.60;99.70;;;;;;5071159;28;20076;-74
2022/05/20 11:46:10;;;;;;;6.60;4.53;;;19.80;99.00;;;;;;5072095;28;20049;-73
2022/05/20 11:49:06;;;;;;;5.00;3.70;;;19.70;98.10;;;;;;5064408;28;20098;-73
2022/05/20 11:52:10;;;;;;;8.15;4.07;;;19.70;99.10;;;;;;5013336;28;20041;-73
2022/05/20 11:54:50;;;;;;;9.05;4.55;;;20.00;98.40;;;;;;5032843;28;20037;-74
2022/05/20 11:57:27;;;;;;;4.38;3.13;;;19.70;97.90;;;;;;5033061;28;20037;-74
2022/05/20 12:00:14;;;;;;;7.75;3.85;;;22.40;99.10;;;;;;5050385;28;20080;-73
2022/05/20 12:02:47;;;;;;;8.38;4.57;;;19.90;98.10;;;;;;5036939;28;20376;-74
2022/05/20 12:05:16;;;;;;;7.80;5.10;;;20.30;98.50;;;;;;5054639;28;20052;-75
2022/05/20 12:07:42;;;;;;;9.68;4.22;;;19.70;98.60;;;;;;5036579;28;20048;-74
2022/05/20 12:10:35;;;;;;;7.95;4.85;;;19.90;99.40;;;;;;5053995;28;20095;-74
2022/05/20 12:13:22;;;;;;;6.47;4.72;;;20.00;98.70;;;;;;5036984;28;20499;-74
2022/05/20 12:16:12;;;;;;;7.82;4.60;;;19.80;99.00;;;;;;5036408;28;20034;-74
2022/05/20 12:24:49;;;;;;;6.45;4.35;;;20.40;99.30;;;;;;5043150;28;20052;-74
2022/05/20 12:27:22;;;;;;;6.22;3.15;;;20.70;99.50;;;;;;5053320;28;20041;-74
2022/05/20 12:29:59;;;;;;;8.30;3.88;;;20.60;97.30;;;;;;5073883;28;20047;-73
2022/05/20 12:32:40;;;;;;;6.40;3.30;;;20.50;97.80;;;;;;5056064;28;20039;-74
2022/05/20 12:35:09;;;;;;;6.18;3.40;;;20.60;97.70;;;;;;5056160;28;20045;-74
2022/05/20 12:37:46;;;;;;;7.18;3.78;;;20.40;97.80;;;;;;5055868;28;20040;-74
2022/05/20 12:40:40;;;;;;;4.35;3.20;;;20.30;97.00;;;;;;5055333;28;20482;-74
2022/05/20 12:43:10;;;;;;;;;;;20.60;97.30;;;;;;5037308;28;20074;-73
2022/05/20 12:45:51;;;;;;;5.28;3.20;;;20.70;96.90;;;;;;5059746;28;19952;-73
2022/05/20 12:48:21;;;;;;;5.68;3.88;;;20.80;96.70;;;;;;5042163;28;20064;-74
2022/05/20 12:51:08;;;;;;;5.03;3.13;;;20.90;97.50;;;;;;5039089;28;20041;-74
2022/05/20 12:53:36;;;;;;;4.55;2.83;;;22.20;98.00;;;;;;5035714;28;20041;-75
2022/05/20 12:56:03;;;;;;;6.18;3.80;;;21.20;97.60;;;;;;5053573;28;20041;-75
2022/05/20 12:58:33;;;;;;;4.03;2.78;;;21.10;97.50;;;;;;5035684;28;20076;-74
2022/05/20 13:01:03;;;;;;;6.68;3.55;;;20.80;97.40;;;;;;5018809;28;20402;-75
2022/05/20 13:03:37;;;;;;;4.07;3.20;;;20.60;97.50;;;;;;5035667;28;20045;-75
2022/05/20 13:06:10;;;;;;;6.20;3.30;;;20.30;96.90;;;;;;5035609;28;20150;-75
2022/05/20 13:08:46;;;;;;;4.05;2.92;;;20.20;97.40;;;;;;5035902;28;20040;-75
2022/05/20 13:11:14;;;;;;;4.53;3.33;;;19.80;97.90;;;;;;5034652;28;20033;-74
2022/05/20 13:13:41;;;;;;;4.47;3.00;;;19.90;97.90;;;;;;5035161;28;20045;-75
2022/05/20 13:16:10;;;;;;;5.05;2.47;;;19.90;97.40;;;;;;5018899;28;20099;-75
2022/05/20 13:18:38;;;;;;;4.43;2.90;;;19.70;97.90;;;;;;5054350;28;20052;-75
2022/05/20 13:21:20;;;;;;;6.20;2.42;;;19.50;97.50;;;;;;5043817;28;20505;-75
2022/05/20 13:23:48;;;;;;;5.40;2.80;;;19.80;97.90;;;;;;5044438;28;20622;-74
2022/05/20 13:26:26;;;;;;;4.65;2.78;;;20.90;98.60;;;;;;5046735;28;20036;-75
2022/05/20 13:28:58;;;;;;;5.28;3.15;;;19.70;98.00;;;;;;5072763;28;20037;-74
2022/05/20 13:31:25;;;;;;;4.33;2.90;;;19.50;98.10;;;;;;5055249;28;20047;-75
2022/05/20 13:33:51;;;;;;;4.65;2.40;;;19.50;98.40;;;;;;5055054;28;20040;-75
2022/05/20 13:36:22;;;;;;;6.18;3.17;;;19.30;97.60;;;;;;5054985;28;20135;-75
2022/05/20 13:38:54;;;;;;;3.15;2.10;;;19.40;97.90;;;;;;5055317;28;20402;-75
2022/05/20 13:41:23;;;;;;;5.20;2.92;;;19.20;98.00;;;;;;5054723;28;20119;-75
2022/05/20 13:43:52;;;;;;;7.20;2.90;;;19.10;98.80;;;;;;5054903;28;20055;-75
2022/05/20 13:49:18;;;;;;;7.72;3.20;;;18.60;99.90;;;;;;5063459;28;20434;-75
2022/05/20 13:51:53;;;;;;;11.02;3.42;;;19.50;99.90;;;;;;5034096;28;20036;-75